createdAt,value
2018-03-02T00:00:08.648Z,30.95
2018-03-02T00:02:36.966Z,21.23
2018-03-02T00:05:05.264Z,26.13
2018-03-02T00:07:32.823Z,30.57
2018-03-02T00:10:01.189Z,27.17
2018-03-02T00:12:29.477Z,31.35
2018-03-02T00:14:57.770Z,29.45
2018-03-02T00:17:26.089Z,28.00
2018-03-02T00:19:54.376Z,36.18
2018-03-02T00:22:22.699Z,33.67
2018-03-02T00:24:51.025Z,24.98
2018-03-02T00:27:19.345Z,31.68
2018-03-02T00:29:47.643Z,29.85
2018-03-02T00:32:15.964Z,29.17
2018-03-02T00:34:44.255Z,27.50
2018-03-02T00:37:12.625Z,27.90
2018-03-02T00:39:40.918Z,31.08
2018-03-02T00:42:09.240Z,28.97
2018-03-02T00:44:37.527Z,27.92
2018-03-02T00:47:05.844Z,26.87
2018-03-02T00:49:34.132Z,36.75
2018-03-02T00:52:02.448Z,37.08
2018-03-02T00:54:30.755Z,26.30
2018-03-02T00:56:59.080Z,33.83
2018-03-02T00:59:27.367Z,35.07
2018-03-02T01:01:55.683Z,26.88
2018-03-02T01:04:24.025Z,33.57
2018-03-02T01:06:52.346Z,35.17
2018-03-02T01:09:20.636Z,27.98
2018-03-02T01:11:48.954Z,34.00
2018-03-02T01:14:17.256Z,29.55
2018-03-02T01:16:45.585Z,35.65
2018-03-02T01:19:13.879Z,33.98
2018-03-02T01:21:42.196Z,32.63
2018-03-02T01:24:10.488Z,31.38
2018-03-02T01:26:38.816Z,30.60
2018-03-02T01:29:07.108Z,32.38
2018-03-02T01:31:35.433Z,27.53
2018-03-02T01:34:03.733Z,30.70
2018-03-02T01:36:32.021Z,28.88
2018-03-02T01:39:00.347Z,31.08
2018-03-02T01:41:28.642Z,39.13
2018-03-02T01:43:56.957Z,29.78
2018-03-02T01:46:25.248Z,33.95
2018-03-02T01:48:53.565Z,34.62
2018-03-02T01:51:33.683Z,32.57
2018-03-02T01:54:02.003Z,30.85
2018-03-02T01:56:30.308Z,33.07
2018-03-02T01:58:58.625Z,37.58
2018-03-02T02:01:26.919Z,39.37
2018-03-02T02:03:55.240Z,33.33
2018-03-02T02:06:23.541Z,31.80
2018-03-02T02:08:51.868Z,35.90
2018-03-02T02:11:20.160Z,35.83
2018-03-02T02:13:48.481Z,31.57
2018-03-02T02:16:16.771Z,35.00
2018-03-02T02:18:45.085Z,35.90
2018-03-02T02:21:13.379Z,33.07
2018-03-02T02:23:41.701Z,32.80
2018-03-02T02:26:09.995Z,32.15
2018-03-02T02:28:38.316Z,36.23
2018-03-02T02:31:06.615Z,36.72
2018-03-02T02:33:34.936Z,31.83
2018-03-02T02:36:03.238Z,31.35
2018-03-02T02:38:31.569Z,30.88
2018-03-02T02:40:59.865Z,38.70
2018-03-02T02:43:28.180Z,34.68
2018-03-02T02:45:56.490Z,36.88
2018-03-02T02:48:24.816Z,39.13
2018-03-02T02:50:53.118Z,30.93
2018-03-02T02:53:21.437Z,30.93
2018-03-02T02:55:49.729Z,31.97
2018-03-02T02:58:18.044Z,33.70
2018-03-02T03:00:46.336Z,34.55
2018-03-02T03:03:14.652Z,31.87
2018-03-02T03:05:42.944Z,32.22
2018-03-02T03:08:11.272Z,31.30
2018-03-02T03:10:39.572Z,33.02
2018-03-02T03:13:07.904Z,38.10
2018-03-02T03:15:36.200Z,45.75
2018-03-02T03:18:04.519Z,33.55
2018-03-02T03:20:32.822Z,33.17
2018-03-02T03:23:01.144Z,36.45
2018-03-02T03:25:29.435Z,33.37
2018-03-02T03:27:57.788Z,34.62
2018-03-02T03:30:26.080Z,40.32
2018-03-02T03:32:54.396Z,41.58
2018-03-02T03:35:22.688Z,37.18
2018-03-02T03:37:51.011Z,41.07
2018-03-02T03:40:19.306Z,39.90
2018-03-02T03:42:47.636Z,38.60
2018-03-02T03:45:15.936Z,27.08
2018-03-02T03:47:44.230Z,36.62
2018-03-02T03:50:12.600Z,36.83
2018-03-02T03:52:40.892Z,37.70
2018-03-02T03:55:09.209Z,35.07
2018-03-02T03:57:37.505Z,39.77
2018-03-02T04:00:05.837Z,37.65
2018-03-02T04:02:34.127Z,36.82
2018-03-02T04:05:02.486Z,32.27
2018-03-02T04:07:30.799Z,27.97
2018-03-02T04:09:59.113Z,35.98
2018-03-02T04:12:27.408Z,33.58
2018-03-02T04:14:55.723Z,38.37
2018-03-02T04:17:24.021Z,34.52
2018-03-02T04:19:52.343Z,39.83
2018-03-02T04:22:20.636Z,39.42
2018-03-02T04:24:48.956Z,39.95
2018-03-02T04:27:17.252Z,38.78
2018-03-02T04:29:45.576Z,33.93
2018-03-02T04:32:13.863Z,40.88
2018-03-02T04:34:42.184Z,38.28
2018-03-02T04:37:10.476Z,40.43
2018-03-02T04:39:38.791Z,31.22
2018-03-02T04:42:07.075Z,39.55
2018-03-02T04:44:35.391Z,23.93
2018-03-02T04:47:02.928Z,42.42
2018-03-02T04:49:31.249Z,42.28
2018-03-02T04:51:59.540Z,35.52
2018-03-02T04:54:27.864Z,34.98
2018-03-02T04:56:56.156Z,34.07
2018-03-02T04:59:24.480Z,39.43
2018-03-02T05:01:52.769Z,36.32
2018-03-02T05:04:21.088Z,38.60
2018-03-02T05:06:49.379Z,37.28
2018-03-02T05:09:17.694Z,40.18
2018-03-02T05:11:45.988Z,46.27
2018-03-02T05:14:14.307Z,37.53
2018-03-02T05:16:42.604Z,36.70
2018-03-02T05:19:10.936Z,34.20
2018-03-02T05:21:39.252Z,35.85
2018-03-02T05:24:07.556Z,40.98
2018-03-02T05:26:35.848Z,35.55
2018-03-02T05:29:04.168Z,35.60
2018-03-02T05:31:32.471Z,42.05
2018-03-02T05:34:00.808Z,40.02
2018-03-02T05:36:29.100Z,33.25
2018-03-02T05:38:57.416Z,35.98
2018-03-02T05:41:25.708Z,49.07
2018-03-02T05:43:54.032Z,46.55
2018-03-02T05:46:22.327Z,46.30
2018-03-02T05:48:50.619Z,43.45
2018-03-02T05:51:18.939Z,38.67
2018-03-02T05:53:47.233Z,46.62
2018-03-02T05:56:15.557Z,41.40
2018-03-02T05:58:43.848Z,44.53
2018-03-02T06:01:12.163Z,39.47
2018-03-02T06:03:40.460Z,45.37
2018-03-02T06:06:08.776Z,53.28
2018-03-02T06:08:37.068Z,40.45
2018-03-02T06:11:05.383Z,39.60
2018-03-02T06:13:32.920Z,41.23
2018-03-02T06:16:01.268Z,55.48
2018-03-02T06:18:29.568Z,57.17
2018-03-02T06:20:57.883Z,60.43
2018-03-02T06:23:26.176Z,58.68
2018-03-02T06:25:54.492Z,66.57
2018-03-02T06:28:22.791Z,50.12
2018-03-02T06:30:51.112Z,67.95
2018-03-02T06:33:19.413Z,66.17
2018-03-02T06:35:47.728Z,66.95
2018-03-02T06:38:16.024Z,46.08
2018-03-02T06:40:44.340Z,57.12
2018-03-02T06:43:12.636Z,59.52
2018-03-02T06:45:40.948Z,42.58
2018-03-02T06:48:09.240Z,68.65
2018-03-02T06:50:37.565Z,46.30
2018-03-02T06:53:05.851Z,47.82
2018-03-02T06:55:34.164Z,49.57
2018-03-02T06:58:03.180Z,43.87
2018-03-02T07:00:31.498Z,49.47
2018-03-02T07:02:59.794Z,36.92
2018-03-02T07:05:28.111Z,44.10
2018-03-02T07:07:56.407Z,50.22
2018-03-02T07:10:24.732Z,42.72
2018-03-02T07:12:53.024Z,47.58
2018-03-02T07:15:21.340Z,42.18
2018-03-02T07:17:49.637Z,39.45
2018-03-02T07:20:17.985Z,47.63
2018-03-02T07:22:46.279Z,40.60
2018-03-02T07:25:14.595Z,38.97
2018-03-02T07:27:42.891Z,37.98
2018-03-02T07:30:11.212Z,46.53
2018-03-02T07:32:39.507Z,39.83
2018-03-02T07:35:07.829Z,42.87
2018-03-02T07:37:36.124Z,48.63
2018-03-02T07:40:04.445Z,43.92
2018-03-02T07:42:32.736Z,41.70
2018-03-02T07:45:01.053Z,40.92
2018-03-02T07:47:29.370Z,50.15
2018-03-02T07:49:57.660Z,44.47
2018-03-02T07:52:25.996Z,42.23
2018-03-02T07:54:54.289Z,41.23
2018-03-02T07:57:22.612Z,41.83
2018-03-02T07:59:50.907Z,42.80
2018-03-02T08:02:19.224Z,41.47
2018-03-02T08:04:47.519Z,50.90
2018-03-02T08:07:15.833Z,39.97
2018-03-02T08:09:44.137Z,44.62
2018-03-02T08:12:12.452Z,38.52
2018-03-02T08:14:40.747Z,40.38
2018-03-02T08:17:09.061Z,36.67
2018-03-02T08:19:37.354Z,44.55
2018-03-02T08:22:05.687Z,37.95
2018-03-02T08:24:33.984Z,39.42
2018-03-02T08:27:02.776Z,38.48
2018-03-02T08:29:31.064Z,45.62
2018-03-02T08:31:59.393Z,43.43
2018-03-02T08:34:27.684Z,44.92
2018-03-02T08:36:56.004Z,39.80
2018-03-02T08:39:24.304Z,38.00
2018-03-02T08:41:52.624Z,38.80
2018-03-02T08:44:20.926Z,44.90
2018-03-02T08:46:49.247Z,40.02
2018-03-02T08:49:17.545Z,44.53
2018-03-02T08:51:45.864Z,46.22
2018-03-02T08:54:14.168Z,40.62
2018-03-02T08:56:42.498Z,48.72
2018-03-02T08:59:10.792Z,39.00
2018-03-02T09:01:39.112Z,37.48
2018-03-02T09:04:07.420Z,39.43
2018-03-02T09:06:35.748Z,38.77
2018-03-02T09:09:04.045Z,42.12
2018-03-02T09:11:32.364Z,46.23
2018-03-02T09:14:00.656Z,40.63
2018-03-02T09:16:28.972Z,36.93
2018-03-02T09:18:57.260Z,37.57
2018-03-02T09:21:25.585Z,44.00
2018-03-02T09:23:53.882Z,39.67
2018-03-02T09:26:22.209Z,42.58
2018-03-02T09:28:50.508Z,35.87
2018-03-02T09:31:18.834Z,40.78
2018-03-02T09:33:47.130Z,46.32
2018-03-02T09:36:15.440Z,44.38
2018-03-02T09:38:43.756Z,36.58
2018-03-02T09:41:12.077Z,42.60
2018-03-02T09:43:40.374Z,37.55
2018-03-02T09:46:08.693Z,47.38
2018-03-02T09:48:37.016Z,43.97
2018-03-02T09:51:05.312Z,44.10
2018-03-02T09:53:33.637Z,39.47
2018-03-02T09:56:01.931Z,41.95
2018-03-02T09:58:30.248Z,44.23
2018-03-02T10:00:58.539Z,43.72
2018-03-02T10:03:26.856Z,41.27
2018-03-02T10:05:54.383Z,37.53
2018-03-02T10:08:22.708Z,39.63
2018-03-02T10:10:50.991Z,43.65
2018-03-02T10:13:19.309Z,40.13
2018-03-02T10:15:47.608Z,45.55
2018-03-02T10:18:15.932Z,44.08
2018-03-02T10:20:44.249Z,42.98
2018-03-02T10:23:12.563Z,37.47
2018-03-02T10:25:40.860Z,37.23
2018-03-02T10:28:09.178Z,45.53
2018-03-02T10:30:37.469Z,47.80
2018-03-02T10:33:05.793Z,42.98
2018-03-02T10:35:34.100Z,53.13
2018-03-02T10:38:02.415Z,38.35
2018-03-02T10:40:30.720Z,43.45
2018-03-02T10:42:59.045Z,39.82
2018-03-02T10:45:27.349Z,44.15
2018-03-02T10:47:55.668Z,40.82
2018-03-02T10:50:23.967Z,37.28
2018-03-02T10:52:52.288Z,39.98
2018-03-02T10:55:20.601Z,40.33
2018-03-02T10:57:48.931Z,37.80
2018-03-02T11:00:22.894Z,42.65
2018-03-02T11:02:57.229Z,44.22
2018-03-02T11:05:31.137Z,37.93
2018-03-02T11:07:59.526Z,41.58
2018-03-02T11:10:27.790Z,51.03
2018-03-02T11:12:56.109Z,47.13
2018-03-02T11:15:24.413Z,43.15
2018-03-02T11:17:52.731Z,40.83
2018-03-02T11:20:21.024Z,49.15
2018-03-02T11:22:48.573Z,45.33
2018-03-02T11:25:16.886Z,42.20
2018-03-02T11:27:45.212Z,51.22
2018-03-02T11:30:13.508Z,42.77
2018-03-02T11:32:41.828Z,46.10
2018-03-02T11:35:10.124Z,42.58
2018-03-02T11:37:38.436Z,43.28
2018-03-02T11:40:06.734Z,43.57
2018-03-02T11:42:35.065Z,50.97
2018-03-02T11:45:03.360Z,39.35
2018-03-02T11:47:31.682Z,36.40
2018-03-02T11:50:00.224Z,40.52
2018-03-02T11:52:28.544Z,42.83
2018-03-02T11:54:56.857Z,43.80
2018-03-02T11:57:25.189Z,49.55
2018-03-02T11:59:53.487Z,43.02
2018-03-02T12:02:21.785Z,44.62
2018-03-02T12:04:50.112Z,43.65
2018-03-02T12:07:18.412Z,42.38
2018-03-02T12:09:46.727Z,42.85
2018-03-02T12:12:15.012Z,39.42
2018-03-02T12:14:43.337Z,43.17
2018-03-02T12:17:11.637Z,45.55
2018-03-02T12:19:39.956Z,43.30
2018-03-02T12:22:08.254Z,40.67
2018-03-02T12:24:36.605Z,44.98
2018-03-02T12:27:04.132Z,45.67
2018-03-02T12:29:32.456Z,46.28
2018-03-02T12:32:00.744Z,39.72
2018-03-02T12:34:29.061Z,46.73
2018-03-02T12:36:57.352Z,53.85
2018-03-02T12:39:25.667Z,43.43
2018-03-02T12:41:53.195Z,41.75
2018-03-02T12:44:21.508Z,46.22
2018-03-02T12:46:49.800Z,47.07
2018-03-02T12:49:18.122Z,45.00
2018-03-02T12:51:46.421Z,43.88
2018-03-02T12:54:14.741Z,49.70
2018-03-02T12:56:43.032Z,43.03
2018-03-02T12:59:11.344Z,47.33
2018-03-02T13:01:39.632Z,47.80
2018-03-02T13:04:07.945Z,44.98
2018-03-02T13:06:36.236Z,37.40
2018-03-02T13:09:04.561Z,50.73
2018-03-02T13:11:32.851Z,42.75
2018-03-02T13:14:01.171Z,44.77
2018-03-02T13:16:29.460Z,42.92
2018-03-02T13:18:57.780Z,48.03
2018-03-02T13:21:26.067Z,46.10
2018-03-02T13:23:54.384Z,47.97
2018-03-02T13:26:34.469Z,45.83
2018-03-02T13:29:02.792Z,40.82
2018-03-02T13:31:31.084Z,45.20
2018-03-02T13:34:11.116Z,49.92
2018-03-02T13:36:39.413Z,45.55
2018-03-02T13:39:07.724Z,47.42
2018-03-02T13:41:47.967Z,53.43
2018-03-02T13:44:16.284Z,48.20
2018-03-02T13:46:44.568Z,52.83
2018-03-02T13:49:24.868Z,42.30
2018-03-02T13:51:53.160Z,47.58
2018-03-02T13:54:21.468Z,51.70
2018-03-02T13:57:01.549Z,50.83
2018-03-02T13:59:29.899Z,44.68
2018-03-02T14:01:58.183Z,43.87
2018-03-02T14:04:50.145Z,49.57
2018-03-02T14:07:18.440Z,45.33
2018-03-02T14:09:46.758Z,50.52
2018-03-02T14:12:15.049Z,51.42
2018-03-02T14:14:43.364Z,41.03
2018-03-02T14:17:11.656Z,47.57
2018-03-02T14:19:39.980Z,48.18
2018-03-02T14:22:08.268Z,51.45
2018-03-02T14:24:36.581Z,57.58
2018-03-02T14:27:04.871Z,50.17
2018-03-02T14:29:33.185Z,52.27
2018-03-02T14:32:01.472Z,47.57
2018-03-02T14:34:29.789Z,51.80
2018-03-02T14:36:58.085Z,53.92
2018-03-02T14:39:26.400Z,57.13
2018-03-02T14:41:54.702Z,48.08
2018-03-02T14:44:22.289Z,57.78
2018-03-02T14:46:50.602Z,51.55
2018-03-02T14:49:18.929Z,47.92
2018-03-02T14:51:47.254Z,48.35
2018-03-02T14:54:15.592Z,50.53
2018-03-02T14:56:43.133Z,54.68
2018-03-02T14:59:11.448Z,54.03
2018-03-02T15:01:39.751Z,49.25
2018-03-02T15:04:08.078Z,53.00
2018-03-02T15:06:36.374Z,53.13
2018-03-02T15:09:04.680Z,54.45
2018-03-02T15:11:33.011Z,58.42
2018-03-02T15:14:01.312Z,59.05
2018-03-02T15:16:29.649Z,56.83
2018-03-02T15:18:57.970Z,51.68
2018-03-02T15:21:26.317Z,59.15
2018-03-02T15:23:53.855Z,54.73
2018-03-02T15:26:22.173Z,54.27
2018-03-02T15:28:50.464Z,60.83
2018-03-02T15:31:18.792Z,62.65
2018-03-02T15:33:47.091Z,61.23
2018-03-02T15:36:15.407Z,55.03
2018-03-02T15:38:43.703Z,52.80
2018-03-02T15:41:12.021Z,55.68
2018-03-02T15:43:40.320Z,69.18
2018-03-02T15:46:08.652Z,53.72
2018-03-02T15:48:36.948Z,65.57
2018-03-02T15:51:05.276Z,54.70
2018-03-02T15:53:33.576Z,66.25
2018-03-02T15:56:01.909Z,59.53
2018-03-02T15:58:30.209Z,56.25
2018-03-02T16:00:58.528Z,57.60
2018-03-02T16:03:26.886Z,51.37
2018-03-02T16:05:55.220Z,57.02
2018-03-02T16:08:23.507Z,54.10
2018-03-02T16:10:51.820Z,62.67
2018-03-02T16:13:20.110Z,62.00
2018-03-02T16:15:48.464Z,58.23
2018-03-02T16:18:16.756Z,57.32
2018-03-02T16:20:45.074Z,65.80
2018-03-02T16:23:13.364Z,62.42
2018-03-02T16:25:41.684Z,57.65
2018-03-02T16:28:09.972Z,57.73
2018-03-02T16:30:38.297Z,59.97
2018-03-02T16:33:06.596Z,63.08
2018-03-02T16:35:34.916Z,62.58
2018-03-02T16:38:03.214Z,66.43
2018-03-02T16:40:31.542Z,61.03
2018-03-02T16:42:59.847Z,68.40
2018-03-02T16:45:28.164Z,63.32
2018-03-02T16:47:56.456Z,61.62
2018-03-02T16:50:24.787Z,61.10
2018-03-02T16:52:53.084Z,54.93
2018-03-02T16:55:20.637Z,62.32
2018-03-02T16:57:48.940Z,64.30
2018-03-02T17:00:17.283Z,63.45
2018-03-02T17:02:45.584Z,62.90
2018-03-02T17:05:13.880Z,67.88
2018-03-02T17:07:42.206Z,72.10
2018-03-02T17:10:10.509Z,94.12
2018-03-02T17:12:38.824Z,68.00
2018-03-02T17:15:07.120Z,65.90
2018-03-02T17:17:35.435Z,65.25
2018-03-02T17:20:03.741Z,67.22
2018-03-02T17:22:32.059Z,65.07
2018-03-02T17:25:00.361Z,61.90
2018-03-02T17:27:28.690Z,62.13
2018-03-02T17:29:56.999Z,65.63
2018-03-02T17:32:25.325Z,58.13
2018-03-02T17:34:53.625Z,60.60
2018-03-02T17:37:21.943Z,62.75
2018-03-02T17:39:50.245Z,65.07
2018-03-02T17:42:18.572Z,61.63
2018-03-02T17:44:46.915Z,76.78
2018-03-02T17:47:15.208Z,72.95
2018-03-02T17:49:43.500Z,73.60
2018-03-02T17:52:11.830Z,67.37
2018-03-02T17:54:40.128Z,66.33
2018-03-02T17:57:08.444Z,74.67
2018-03-02T17:59:36.743Z,71.60
2018-03-02T18:02:05.064Z,64.43
2018-03-02T18:04:33.359Z,63.70
2018-03-02T18:07:01.686Z,63.98
2018-03-02T18:09:29.984Z,76.35
2018-03-02T18:11:58.300Z,63.80
2018-03-02T18:14:26.605Z,63.50
2018-03-02T18:16:54.916Z,66.05
2018-03-02T18:19:23.212Z,76.13
2018-03-02T18:21:51.538Z,61.32
2018-03-02T18:24:19.839Z,71.97
2018-03-02T18:26:48.193Z,77.68
2018-03-02T18:29:16.487Z,62.08
2018-03-02T18:31:44.813Z,65.30
2018-03-02T18:34:13.105Z,56.93
2018-03-02T18:36:41.420Z,73.10
2018-03-02T18:39:09.720Z,68.08
2018-03-02T18:41:38.048Z,72.50
2018-03-02T18:44:06.347Z,75.67
2018-03-02T18:46:34.676Z,79.88
2018-03-02T18:49:02.981Z,65.28
2018-03-02T18:51:31.317Z,69.78
2018-03-02T18:53:59.615Z,73.72
2018-03-02T18:56:27.937Z,68.30
2018-03-02T18:58:56.232Z,79.00
2018-03-02T19:01:24.564Z,71.07
2018-03-02T19:03:52.864Z,67.25
2018-03-02T19:06:21.174Z,73.63
2018-03-02T19:08:49.563Z,68.93
2018-03-02T19:11:17.862Z,73.42
2018-03-02T19:13:46.190Z,75.32
2018-03-02T19:16:14.508Z,71.62
2018-03-02T19:18:42.832Z,73.87
2018-03-02T19:21:11.149Z,87.67
2018-03-02T19:23:39.473Z,79.42
2018-03-02T19:26:07.774Z,58.43
2018-03-02T19:28:36.144Z,75.53
2018-03-02T19:31:04.480Z,73.13
2018-03-02T19:33:32.793Z,71.73
2018-03-02T19:36:01.095Z,68.90
2018-03-02T19:38:29.424Z,64.55
2018-03-02T19:40:57.729Z,77.65
2018-03-02T19:43:26.053Z,84.23
2018-03-02T19:45:54.358Z,74.45
2018-03-02T19:48:22.685Z,69.07
2018-03-02T19:50:50.975Z,70.50
2018-03-02T19:53:19.292Z,74.07
2018-03-02T19:55:47.592Z,71.17
2018-03-02T19:58:15.932Z,75.07
2018-03-02T20:00:44.226Z,71.60
2018-03-02T20:03:12.559Z,70.87
2018-03-02T20:05:40.870Z,72.98
2018-03-02T20:08:09.185Z,67.87
2018-03-02T20:10:37.477Z,76.73
2018-03-02T20:13:05.800Z,68.90
2018-03-02T20:15:34.109Z,74.52
2018-03-02T20:18:02.471Z,72.57
2018-03-02T20:20:30.785Z,80.07
2018-03-02T20:22:59.148Z,75.42
2018-03-02T20:25:27.450Z,82.10
2018-03-02T20:27:55.776Z,81.60
2018-03-02T20:30:24.067Z,79.48
2018-03-02T20:32:52.380Z,72.67
2018-03-02T20:35:20.684Z,96.70
2018-03-02T20:37:49.009Z,108.50
2018-03-02T20:40:17.313Z,97.92
2018-03-02T20:42:44.880Z,86.50
2018-03-02T20:45:13.172Z,74.05
2018-03-02T20:47:40.738Z,74.88
2018-03-02T20:50:09.041Z,89.58
2018-03-02T20:52:36.669Z,86.77
2018-03-02T20:55:04.921Z,73.90
2018-03-02T20:57:33.252Z,71.18
2018-03-02T21:00:01.560Z,83.95
2018-03-02T21:02:29.884Z,73.22
2018-03-02T21:04:58.217Z,68.37
2018-03-02T21:07:26.521Z,68.92
2018-03-02T21:09:54.836Z,82.40
2018-03-02T21:12:23.128Z,79.35
2018-03-02T21:14:51.452Z,85.45
2018-03-02T21:17:19.761Z,74.48
2018-03-02T21:19:48.091Z,84.07
2018-03-02T21:22:16.416Z,108.85
2018-03-02T21:24:44.736Z,83.22
2018-03-02T21:27:13.059Z,152.27
2018-03-02T21:29:41.393Z,79.38
2018-03-02T21:32:09.864Z,80.98
2018-03-02T21:34:38.257Z,75.52
2018-03-02T21:37:06.501Z,73.60
2018-03-02T21:39:34.812Z,81.28
2018-03-02T21:42:03.114Z,69.20
2018-03-02T21:44:32.171Z,85.23
2018-03-02T21:47:00.472Z,80.60
2018-03-02T21:49:28.784Z,69.05
2018-03-02T21:51:57.086Z,86.32
2018-03-02T21:54:25.407Z,68.10
2018-03-02T21:56:53.700Z,73.10
2018-03-02T21:59:22.021Z,75.02
2018-03-02T22:01:50.315Z,82.40
2018-03-02T22:04:18.634Z,72.97
2018-03-02T22:06:46.924Z,73.03
2018-03-02T22:09:15.240Z,73.32
2018-03-02T22:11:43.540Z,79.58
2018-03-02T22:14:11.877Z,139.83
2018-03-02T22:16:40.169Z,114.10
2018-03-02T22:19:08.485Z,89.87
2018-03-02T22:21:36.775Z,75.93
2018-03-02T22:24:05.109Z,74.32
2018-03-02T22:26:33.409Z,77.63
2018-03-02T22:29:01.725Z,82.78
2018-03-02T22:31:30.028Z,75.80
2018-03-02T22:33:58.339Z,81.78
2018-03-02T22:36:26.629Z,75.08
2018-03-02T22:38:54.977Z,75.95
2018-03-02T22:41:23.268Z,75.60
2018-03-02T22:43:51.588Z,73.62
2018-03-02T22:46:19.888Z,76.10
2018-03-02T22:48:48.203Z,70.73
2018-03-02T22:51:16.501Z,70.30
2018-03-02T22:53:44.820Z,74.57
2018-03-02T22:56:13.114Z,77.42
2018-03-02T22:58:41.912Z,69.23
2018-03-02T23:01:10.200Z,79.95
2018-03-02T23:03:38.520Z,85.72
2018-03-02T23:06:06.808Z,71.57
2018-03-02T23:08:35.105Z,71.98
2018-03-02T23:11:03.424Z,76.80
2018-03-02T23:13:31.724Z,79.05
2018-03-02T23:16:00.056Z,138.97
2018-03-02T23:18:28.355Z,74.48
2018-03-02T23:20:56.740Z,71.37
2018-03-02T23:23:25.009Z,72.08
2018-03-02T23:25:53.324Z,65.12
2018-03-02T23:28:21.615Z,77.98
2018-03-02T23:30:49.937Z,75.03
2018-03-02T23:33:18.227Z,79.70
2018-03-02T23:35:46.540Z,77.67
2018-03-02T23:38:14.830Z,73.20
2018-03-02T23:40:43.144Z,81.35
2018-03-02T23:43:11.441Z,76.43
2018-03-02T23:45:39.764Z,69.00
2018-03-02T23:48:08.056Z,79.15
2018-03-02T23:50:36.376Z,71.87
2018-03-02T23:53:04.680Z,70.80
2018-03-02T23:55:32.996Z,71.12
2018-03-02T23:58:01.283Z,63.13
